SCOT11 YBOK-YBOK
Flight info
| Callsign | SCOT11 |
|---|---|
| Flight time | 0h 16m |
| Altitude | 1500 |
| Route | OK |
| Aircraft | H135/L-SDFGRY/LB1 |
Departure
| Time | 2026-04-25 06:25 |
|---|---|
| Airport | Oakey Army Aviation Centre (YBOK) |
Arrival
| Time | 2026-04-25 06:41 |
|---|---|
| Airport | Oakey Army Aviation Centre (YBOK) |
| Time | Latitude | Longitude | Altitude | Speed | Heading |
|---|---|---|---|---|---|
| 2026-04-25 05:31 | -27.41291 | 151.73408 | 1332 ft | 0 kts | 98° |
| 2026-04-25 05:41 | -27.41290 | 151.73406 | 1338 ft | 1 kts | 108° |
| 2026-04-25 05:41 | -27.41281 | 151.73434 | 1347 ft | 8 kts | 59° |
| 2026-04-25 05:42 | -27.41233 | 151.73448 | 1338 ft | 8 kts | 341° |
| 2026-04-25 05:42 | -27.41212 | 151.73398 | 1336 ft | 9 kts | 282° |
| 2026-04-25 05:42 | -27.41203 | 151.73328 | 1337 ft | 10 kts | 280° |
| 2026-04-25 05:42 | -27.41189 | 151.73242 | 1338 ft | 10 kts | 283° |
| 2026-04-25 05:43 | -27.41177 | 151.73164 | 1340 ft | 12 kts | 288° |
| 2026-04-25 05:43 | -27.41163 | 151.73069 | 1339 ft | 13 kts | 279° |
| 2026-04-25 05:43 | -27.41149 | 151.72965 | 1341 ft | 13 kts | 296° |
| 2026-04-25 05:43 | -27.41134 | 151.72871 | 1340 ft | 13 kts | 286° |
| 2026-04-25 05:44 | -27.41114 | 151.72742 | 1344 ft | 18 kts | 286° |
| 2026-04-25 05:44 | -27.41095 | 151.72611 | 1343 ft | 15 kts | 291° |
| 2026-04-25 05:44 | -27.41072 | 151.72517 | 1345 ft | 8 kts | 327° |
| 2026-04-25 05:44 | -27.41052 | 151.72490 | 1348 ft | 2 kts | 326° |
| 2026-04-25 05:45 | -27.41039 | 151.72481 | 1342 ft | 4 kts | 342° |
| 2026-04-25 05:45 | -27.40959 | 151.72472 | 1358 ft | 16 kts | 14° |
| 2026-04-25 05:45 | -27.40920 | 151.72537 | 1355 ft | 5 kts | 115° |
| 2026-04-25 05:45 | -27.40921 | 151.72546 | 1366 ft | 12 kts | 101° |
| 2026-04-25 05:46 | -27.40946 | 151.72730 | 1367 ft | 34 kts | 98° |
| 2026-04-25 05:46 | -27.40990 | 151.73040 | 1431 ft | 45 kts | 99° |
| 2026-04-25 05:46 | -27.41052 | 151.73418 | 1502 ft | 50 kts | 104° |
| 2026-04-25 05:46 | -27.41093 | 151.73779 | 1644 ft | 45 kts | 86° |
| 2026-04-25 05:47 | -27.40828 | 151.73982 | 1631 ft | 59 kts | 11° |
| 2026-04-25 05:47 | -27.40559 | 151.73609 | 1654 ft | 67 kts | 284° |
| 2026-04-25 05:47 | -27.40445 | 151.73072 | 1616 ft | 74 kts | 277° |
| 2026-04-25 05:47 | -27.40333 | 151.72471 | 1559 ft | 81 kts | 285° |
| 2026-04-25 05:48 | -27.40288 | 151.71842 | 1604 ft | 78 kts | 237° |
| 2026-04-25 05:48 | -27.40720 | 151.71639 | 1572 ft | 73 kts | 148° |
| 2026-04-25 05:48 | -27.40847 | 151.72146 | 1443 ft | 65 kts | 102° |
| 2026-04-25 05:48 | -27.40908 | 151.72478 | 1372 ft | 16 kts | 98° |
| 2026-04-25 05:49 | -27.40926 | 151.72570 | 1354 ft | 24 kts | 101° |
| 2026-04-25 05:49 | -27.40963 | 151.72828 | 1366 ft | 40 kts | 104° |
| 2026-04-25 05:49 | -27.41018 | 151.73131 | 1455 ft | 39 kts | 109° |
| 2026-04-25 05:49 | -27.41073 | 151.73478 | 1509 ft | 51 kts | 103° |
| 2026-04-25 05:50 | -27.41092 | 151.73915 | 1563 ft | 59 kts | 79° |
| 2026-04-25 05:50 | -27.40736 | 151.74208 | 1559 ft | 75 kts | 21° |
| 2026-04-25 05:50 | -27.40379 | 151.73863 | 1615 ft | 78 kts | 275° |
| 2026-04-25 05:50 | -27.40291 | 151.73228 | 1586 ft | 88 kts | 276° |
| 2026-04-25 05:51 | -27.40186 | 151.72539 | 1601 ft | 89 kts | 272° |
| 2026-04-25 05:51 | -27.40117 | 151.71846 | 1618 ft | 89 kts | 271° |
| 2026-04-25 05:51 | -27.40423 | 151.71404 | 1712 ft | 72 kts | 179° |
| 2026-04-25 05:51 | -27.40801 | 151.71653 | 1612 ft | 73 kts | 105° |
| 2026-04-25 05:52 | -27.40862 | 151.72071 | 1488 ft | 35 kts | 110° |
| 2026-04-25 05:52 | -27.40891 | 151.72289 | 1433 ft | 28 kts | 115° |
| 2026-04-25 05:52 | -27.40910 | 151.72459 | 1362 ft | 10 kts | 109° |
| 2026-04-25 05:52 | -27.40913 | 151.72486 | 1358 ft | 7 kts | 102° |
| 2026-04-25 05:53 | -27.40944 | 151.72684 | 1352 ft | 37 kts | 105° |
| 2026-04-25 05:53 | -27.41001 | 151.73036 | 1410 ft | 52 kts | 106° |
| 2026-04-25 05:53 | -27.41071 | 151.73491 | 1520 ft | 63 kts | 100° |
| 2026-04-25 05:53 | -27.41081 | 151.74021 | 1594 ft | 75 kts | 82° |
| 2026-04-25 05:54 | -27.40605 | 151.74213 | 1573 ft | 99 kts | 335° |
| 2026-04-25 05:54 | -27.40301 | 151.73504 | 1573 ft | 108 kts | 281° |
| 2026-04-25 05:54 | -27.40104 | 151.71744 | 1601 ft | 113 kts | 271° |
| 2026-04-25 05:55 | -27.40532 | 151.71303 | 1636 ft | 86 kts | 148° |
| 2026-04-25 05:55 | -27.40816 | 151.71829 | 1512 ft | 67 kts | 98° |
| 2026-04-25 05:55 | -27.40869 | 151.72155 | 1442 ft | 28 kts | 108° |
| 2026-04-25 05:55 | -27.40895 | 151.72336 | 1392 ft | 21 kts | 112° |
| 2026-04-25 05:56 | -27.40911 | 151.72464 | 1357 ft | 7 kts | 109° |
| 2026-04-25 05:56 | -27.40914 | 151.72492 | 1369 ft | 15 kts | 104° |
| 2026-04-25 05:56 | -27.40956 | 151.72768 | 1359 ft | 50 kts | 102° |
| 2026-04-25 05:56 | -27.41035 | 151.73243 | 1466 ft | 72 kts | 104° |
| 2026-04-25 05:57 | -27.41137 | 151.73842 | 1618 ft | 82 kts | 104° |
| 2026-04-25 05:57 | -27.40941 | 151.74402 | 1691 ft | 100 kts | 18° |
| 2026-04-25 05:57 | -27.40475 | 151.73835 | 1728 ft | 114 kts | 284° |
| 2026-04-25 05:57 | -27.40281 | 151.72907 | 1668 ft | 129 kts | 279° |
| 2026-04-25 05:58 | -27.40150 | 151.71883 | 1638 ft | 132 kts | 276° |
| 2026-04-25 05:58 | -27.40550 | 151.71282 | 1640 ft | 96 kts | 161° |
| 2026-04-25 05:58 | -27.40811 | 151.71829 | 1463 ft | 66 kts | 103° |
| 2026-04-25 05:58 | -27.40876 | 151.72196 | 1436 ft | 33 kts | 110° |
| 2026-04-25 05:59 | -27.40904 | 151.72392 | 1378 ft | 18 kts | 110° |
| 2026-04-25 05:59 | -27.40913 | 151.72475 | 1353 ft | 3 kts | 108° |
| 2026-04-25 05:59 | -27.40942 | 151.72661 | 1351 ft | 43 kts | 102° |
| 2026-04-25 05:59 | -27.41000 | 151.73067 | 1350 ft | 59 kts | 99° |
| 2026-04-25 06:00 | -27.41081 | 151.73514 | 1445 ft | 60 kts | 106° |
| 2026-04-25 06:00 | -27.41150 | 151.74062 | 1519 ft | 80 kts | 83° |
| 2026-04-25 06:00 | -27.40660 | 151.74281 | 1550 ft | 99 kts | 333° |
| 2026-04-25 06:00 | -27.40397 | 151.73550 | 1597 ft | 111 kts | 279° |
| 2026-04-25 06:01 | -27.40288 | 151.72637 | 1580 ft | 122 kts | 271° |
| 2026-04-25 06:01 | -27.40267 | 151.71648 | 1558 ft | 126 kts | 264° |
| 2026-04-25 06:01 | -27.40767 | 151.71292 | 1592 ft | 102 kts | 118° |
| 2026-04-25 06:01 | -27.40832 | 151.72006 | 1447 ft | 66 kts | 106° |
| 2026-04-25 06:02 | -27.40894 | 151.72310 | 1400 ft | 25 kts | 110° |
| 2026-04-25 06:02 | -27.40911 | 151.72462 | 1364 ft | 13 kts | 104° |
| 2026-04-25 06:02 | -27.40913 | 151.72489 | 1350 ft | 4 kts | 103° |
| 2026-04-25 06:02 | -27.40950 | 151.72713 | 1348 ft | 47 kts | 103° |
| 2026-04-25 06:03 | -27.41018 | 151.73189 | 1404 ft | 70 kts | 103° |
| 2026-04-25 06:03 | -27.41124 | 151.73743 | 1562 ft | 76 kts | 108° |
| 2026-04-25 06:03 | -27.40871 | 151.74176 | 1620 ft | 100 kts | 358° |
| 2026-04-25 06:03 | -27.40489 | 151.73511 | 1633 ft | 115 kts | 282° |
| 2026-04-25 06:04 | -27.40338 | 151.72571 | 1607 ft | 127 kts | 278° |
| 2026-04-25 06:04 | -27.40255 | 151.71561 | 1621 ft | 128 kts | 253° |
| 2026-04-25 06:04 | -27.40773 | 151.71491 | 1549 ft | 90 kts | 105° |
| 2026-04-25 06:04 | -27.40855 | 151.72094 | 1455 ft | 55 kts | 108° |
| 2026-04-25 06:05 | -27.40904 | 151.72380 | 1381 ft | 25 kts | 110° |
| 2026-04-25 06:05 | -27.40922 | 151.72522 | 1355 ft | 18 kts | 105° |
| 2026-04-25 06:05 | -27.40943 | 151.72682 | 1358 ft | 21 kts | 101° |
| 2026-04-25 06:05 | -27.40968 | 151.72819 | 1356 ft | 10 kts | 119° |
| 2026-04-25 06:06 | -27.41023 | 151.72846 | 1351 ft | 10 kts | 194° |
| 2026-04-25 06:06 | -27.41099 | 151.72836 | 1350 ft | 12 kts | 154° |
| 2026-04-25 06:06 | -27.41137 | 151.72895 | 1350 ft | 13 kts | 105° |
| 2026-04-25 06:06 | -27.41158 | 151.73026 | 1350 ft | 20 kts | 101° |
| 2026-04-25 06:07 | -27.41181 | 151.73178 | 1357 ft | 19 kts | 101° |
| 2026-04-25 06:07 | -27.41196 | 151.73273 | 1346 ft | 8 kts | 115° |
| 2026-04-25 06:07 | -27.41226 | 151.73297 | 1354 ft | 11 kts | 161° |
| 2026-04-25 06:07 | -27.41277 | 151.73372 | 1364 ft | 8 kts | 106° |
| 2026-04-25 06:08 | -27.41288 | 151.73391 | 1342 ft | 3 kts | 109° |
| 2026-04-25 06:08 | -27.41288 | 151.73398 | 1331 ft | 0 kts | 104° |
| 2026-04-25 06:21 | -27.41288 | 151.73396 | 1334 ft | 2 kts | 105° |
| 2026-04-25 06:21 | -27.41285 | 151.73392 | 1339 ft | 0 kts | 105° |
| 2026-04-25 06:22 | -27.41277 | 151.73419 | 1385 ft | 11 kts | 93° |
| 2026-04-25 06:22 | -27.41279 | 151.73600 | 1381 ft | 37 kts | 98° |
| 2026-04-25 06:22 | -27.41319 | 151.73972 | 1416 ft | 58 kts | 96° |
| 2026-04-25 06:22 | -27.41439 | 151.74407 | 1524 ft | 56 kts | 112° |
| 2026-04-25 06:23 | -27.41691 | 151.74752 | 1586 ft | 62 kts | 127° |
| 2026-04-25 06:23 | -27.42039 | 151.75129 | 1621 ft | 78 kts | 132° |
| 2026-04-25 06:23 | -27.42444 | 151.75614 | 1617 ft | 89 kts | 126° |
| 2026-04-25 06:23 | -27.42788 | 151.76168 | 1720 ft | 82 kts | 123° |
| 2026-04-25 06:24 | -27.43126 | 151.76715 | 1720 ft | 89 kts | 126° |
| 2026-04-25 06:24 | -27.43499 | 151.77248 | 1778 ft | 86 kts | 127° |
| 2026-04-25 06:24 | -27.43897 | 151.77787 | 1856 ft | 93 kts | 123° |
| 2026-04-25 06:24 | -27.44289 | 151.78396 | 1922 ft | 98 kts | 127° |
| 2026-04-25 06:25 | -27.44696 | 151.78987 | 2091 ft | 91 kts | 129° |
| 2026-04-25 06:25 | -27.45117 | 151.79536 | 2194 ft | 96 kts | 132° |
| 2026-04-25 06:25 | -27.45617 | 151.80130 | 2129 ft | 114 kts | 131° |
| 2026-04-25 06:25 | -27.46126 | 151.80806 | 2169 ft | 113 kts | 127° |
| 2026-04-25 06:26 | -27.46560 | 151.81513 | 2275 ft | 103 kts | 124° |
| 2026-04-25 06:26 | -27.46913 | 151.82185 | 2383 ft | 99 kts | 126° |
| 2026-04-25 06:26 | -27.47282 | 151.82778 | 2560 ft | 91 kts | 133° |
| 2026-04-25 06:26 | -27.47742 | 151.83315 | 2617 ft | 102 kts | 131° |
| 2026-04-25 06:27 | -27.48207 | 151.83936 | 2681 ft | 101 kts | 125° |
| 2026-04-25 06:27 | -27.48619 | 151.84577 | 2751 ft | 101 kts | 126° |
| 2026-04-25 06:27 | -27.49034 | 151.85220 | 2786 ft | 104 kts | 127° |
| 2026-04-25 06:27 | -27.49490 | 151.85906 | 2722 ft | 114 kts | 127° |
| 2026-04-25 06:28 | -27.49928 | 151.86650 | 2718 ft | 113 kts | 123° |
| 2026-04-25 06:28 | -27.50390 | 151.87364 | 2784 ft | 111 kts | 133° |
| 2026-04-25 06:28 | -27.50945 | 151.87988 | 2788 ft | 115 kts | 134° |
| 2026-04-25 06:28 | -27.51477 | 151.88631 | 2830 ft | 111 kts | 131° |
| 2026-04-25 06:29 | -27.51961 | 151.89310 | 2807 ft | 113 kts | 129° |
| 2026-04-25 06:29 | -27.52441 | 151.90046 | 2750 ft | 115 kts | 127° |
| 2026-04-25 06:29 | -27.52880 | 151.90793 | 2728 ft | 113 kts | 125° |
| 2026-04-25 06:29 | -27.53460 | 151.91370 | 2794 ft | 108 kts | 137° |
| 2026-04-25 06:30 | -27.53962 | 151.91892 | 2855 ft | 93 kts | 140° |
| 2026-04-25 06:30 | -27.54554 | 151.92019 | 2927 ft | 85 kts | 175° |
| 2026-04-25 06:30 | -27.54578 | 151.92471 | 2968 ft | 97 kts | 50° |
| 2026-04-25 06:30 | -27.53849 | 151.92672 | 2918 ft | 116 kts | 18° |
| 2026-04-25 06:31 | -27.52985 | 151.92769 | 2855 ft | 132 kts | 12° |
| 2026-04-25 06:31 | -27.52068 | 151.92805 | 2926 ft | 132 kts | 12° |
| 2026-04-25 06:31 | -27.51143 | 151.92854 | 2941 ft | 133 kts | 11° |
| 2026-04-25 06:31 | -27.50231 | 151.92900 | 2887 ft | 130 kts | 11° |
| 2026-04-25 06:32 | -27.49339 | 151.92864 | 2825 ft | 132 kts | 343° |
| 2026-04-25 06:32 | -27.48769 | 151.92092 | 2819 ft | 126 kts | 297° |
| 2026-04-25 06:32 | -27.48412 | 151.91223 | 2852 ft | 119 kts | 292° |
| 2026-04-25 06:32 | -27.48086 | 151.90375 | 2868 ft | 117 kts | 291° |
| 2026-04-25 06:33 | -27.47770 | 151.89542 | 2877 ft | 114 kts | 291° |
| 2026-04-25 06:33 | -27.47562 | 151.89000 | 2881 ft | 115 kts | 291° |
| 2026-04-25 06:33 | -27.47244 | 151.88180 | 2884 ft | 113 kts | 291° |
| 2026-04-25 06:33 | -27.46928 | 151.87363 | 2886 ft | 114 kts | 291° |
| 2026-04-25 06:34 | -27.46608 | 151.86542 | 2885 ft | 115 kts | 291° |
| 2026-04-25 06:34 | -27.46219 | 151.85423 | 2878 ft | 119 kts | 271° |
| 2026-04-25 06:34 | -27.46756 | 151.84734 | 2758 ft | 130 kts | 200° |
| 2026-04-25 06:34 | -27.47266 | 151.84390 | 2639 ft | 127 kts | 204° |
| 2026-04-25 06:35 | -27.48021 | 151.84128 | 2679 ft | 117 kts | 118° |
| 2026-04-25 06:35 | -27.47581 | 151.84577 | 2600 ft | 140 kts | 336° |
| 2026-04-25 06:35 | -27.46874 | 151.83665 | 2480 ft | 166 kts | 302° |
| 2026-04-25 06:35 | -27.46393 | 151.82518 | 2387 ft | 159 kts | 285° |
| 2026-04-25 06:36 | -27.46181 | 151.81331 | 2320 ft | 153 kts | 277° |
| 2026-04-25 06:36 | -27.46102 | 151.80155 | 2299 ft | 148 kts | 275° |
| 2026-04-25 06:36 | -27.45610 | 151.79154 | 2288 ft | 146 kts | 304° |
| 2026-04-25 06:36 | -27.45541 | 151.79025 | 2281 ft | 146 kts | 303° |
| 2026-04-25 06:37 | -27.45259 | 151.78439 | 2148 ft | 153 kts | 296° |
| 2026-04-25 06:38 | -27.44722 | 151.77410 | 2014 ft | 148 kts | 307° |
| 2026-04-25 06:38 | -27.44260 | 151.76461 | 1989 ft | 134 kts | 292° |
| 2026-04-25 06:38 | -27.43984 | 151.75533 | 2054 ft | 116 kts | 295° |
| 2026-04-25 06:38 | -27.43476 | 151.74975 | 2235 ft | 103 kts | 5° |
| 2026-04-25 06:39 | -27.42727 | 151.74955 | 2281 ft | 109 kts | 18° |
| 2026-04-25 06:39 | -27.42072 | 151.75301 | 2247 ft | 104 kts | 33° |
| 2026-04-25 06:39 | -27.41372 | 151.75635 | 2172 ft | 114 kts | 26° |
| 2026-04-25 06:39 | -27.40615 | 151.75534 | 2071 ft | 125 kts | 303° |
| 2026-04-25 06:40 | -27.40590 | 151.74640 | 1886 ft | 112 kts | 253° |
| 2026-04-25 06:40 | -27.40584 | 151.73840 | 1764 ft | 89 kts | 279° |
| 2026-04-25 06:40 | -27.40389 | 151.73171 | 1685 ft | 94 kts | 282° |
| 2026-04-25 06:40 | -27.40193 | 151.72435 | 1648 ft | 99 kts | 287° |
| 2026-04-25 06:41 | -27.40001 | 151.71698 | 1643 ft | 99 kts | 266° |
| 2026-04-25 06:41 | -27.40428 | 151.71218 | 1614 ft | 100 kts | 191° |
| 2026-04-25 06:41 | -27.40821 | 151.71731 | 1511 ft | 96 kts | 108° |
| 2026-04-25 06:41 | -27.40869 | 151.72223 | 1444 ft | 32 kts | 108° |
| 2026-04-25 06:42 | -27.40897 | 151.72391 | 1385 ft | 16 kts | 107° |
| 2026-04-25 06:42 | -27.40908 | 151.72463 | 1358 ft | 6 kts | 103° |
| 2026-04-25 06:42 | -27.40911 | 151.72485 | 1348 ft | 2 kts | 100° |
| 2026-04-25 06:42 | -27.40917 | 151.72523 | 1359 ft | 13 kts | 102° |
| 2026-04-25 06:43 | -27.40934 | 151.72634 | 1357 ft | 13 kts | 98° |
| 2026-04-25 06:43 | -27.40948 | 151.72724 | 1358 ft | 12 kts | 102° |
| 2026-04-25 06:43 | -27.40958 | 151.72792 | 1359 ft | 7 kts | 105° |
| 2026-04-25 06:43 | -27.40988 | 151.72840 | 1360 ft | 9 kts | 156° |
| 2026-04-25 06:44 | -27.41090 | 151.72832 | 1361 ft | 15 kts | 167° |
| 2026-04-25 06:44 | -27.41137 | 151.72908 | 1354 ft | 16 kts | 103° |
| 2026-04-25 06:44 | -27.41163 | 151.73060 | 1353 ft | 23 kts | 96° |
| 2026-04-25 06:44 | -27.41187 | 151.73222 | 1357 ft | 17 kts | 99° |
| 2026-04-25 06:45 | -27.41248 | 151.73334 | 1356 ft | 14 kts | 120° |
| 2026-04-25 06:45 | -27.41288 | 151.73392 | 1346 ft | 2 kts | 103° |
| 2026-04-25 06:45 | -27.41289 | 151.73398 | 1340 ft | 0 kts | 104° |